createdAt,value
2023-04-22T00:00:20.672Z,17.30
2023-04-22T00:02:49.066Z,17.50
2023-04-22T00:08:15.472Z,16.40
2023-04-22T00:10:43.759Z,18.20
2023-04-22T00:13:12.270Z,17.00
2023-04-22T00:15:40.576Z,17.20
2023-04-22T00:18:14.130Z,21.40
2023-04-22T00:20:43.930Z,17.10
2023-04-22T00:23:12.676Z,21.20
2023-04-22T00:25:40.902Z,20.70
2023-04-22T00:28:09.180Z,17.30
2023-04-22T00:30:37.658Z,20.00
2023-04-22T00:33:05.902Z,15.10
2023-04-22T00:35:34.793Z,16.40
2023-04-22T00:38:02.949Z,18.90
2023-04-22T00:40:31.417Z,19.60
2023-04-22T00:43:00.014Z,16.40
2023-04-22T00:45:28.142Z,16.30
2023-04-22T00:47:56.291Z,17.30
2023-04-22T00:50:24.719Z,19.20
2023-04-22T00:52:52.938Z,15.20
2023-04-22T00:55:21.272Z,18.50
2023-04-22T00:57:49.959Z,15.60
2023-04-22T01:00:20.152Z,16.30
2023-04-22T01:02:48.732Z,21.70
2023-04-22T01:05:17.060Z,15.20
2023-04-22T01:07:45.617Z,16.80
2023-04-22T01:10:13.986Z,18.10
2023-04-22T01:12:42.211Z,17.20
2023-04-22T01:15:11.521Z,17.30
2023-04-22T01:17:39.784Z,18.60
2023-04-22T01:20:10.681Z,18.50
2023-04-22T01:22:42.569Z,13.50
2023-04-22T01:27:41.061Z,15.70
2023-04-22T01:30:09.686Z,14.80
2023-04-22T01:35:09.971Z,18.40
2023-04-22T01:37:38.272Z,19.40
2023-04-22T01:40:08.000Z,17.40
2023-04-22T01:42:36.273Z,14.00
2023-04-22T01:45:05.788Z,15.60
2023-04-22T01:47:34.041Z,14.90
2023-04-22T01:50:02.196Z,17.70
2023-04-22T01:52:31.139Z,13.80
2023-04-22T01:54:59.452Z,16.00
2023-04-22T01:57:27.571Z,13.70
2023-04-22T01:59:56.032Z,12.20
2023-04-22T02:02:24.255Z,14.70
2023-04-22T02:04:52.744Z,13.30
2023-04-22T02:07:21.090Z,13.70
2023-04-22T02:09:50.921Z,15.80
2023-04-22T02:12:19.267Z,13.50
2023-04-22T02:14:47.397Z,12.30
2023-04-22T02:17:17.942Z,12.80
2023-04-22T02:19:47.079Z,13.70
2023-04-22T02:22:15.265Z,13.30
2023-04-22T02:24:43.512Z,12.50
2023-04-22T02:27:11.812Z,12.00
2023-04-22T02:29:40.634Z,14.50
2023-04-22T02:32:09.550Z,12.50
2023-04-22T02:34:39.133Z,11.70
2023-04-22T02:37:07.216Z,12.50
2023-04-22T02:39:35.528Z,17.90
2023-04-22T02:42:03.753Z,14.70
2023-04-22T02:44:31.889Z,13.40
2023-04-22T02:47:00.291Z,16.50
2023-04-22T02:49:28.544Z,13.20
2023-04-22T02:51:57.391Z,12.50
2023-04-22T02:54:25.545Z,13.90
2023-04-22T02:56:53.620Z,14.70
2023-04-22T02:59:22.025Z,14.50
2023-04-22T03:01:50.400Z,12.10
2023-04-22T03:04:30.248Z,15.50
2023-04-22T03:06:59.833Z,12.30
2023-04-22T03:09:28.141Z,13.70
2023-04-22T03:11:56.413Z,11.90
2023-04-22T03:14:24.788Z,18.10
2023-04-22T03:16:55.337Z,15.20
2023-04-22T03:19:23.862Z,13.90
2023-04-22T03:21:52.076Z,18.70
2023-04-22T03:24:21.868Z,13.10
2023-04-22T03:26:51.511Z,10.90
2023-04-22T03:29:19.995Z,14.90
2023-04-22T03:31:48.169Z,13.70
2023-04-22T03:34:16.544Z,11.90
2023-04-22T03:36:45.844Z,12.00
2023-04-22T03:39:14.191Z,17.40
2023-04-22T03:41:42.996Z,13.10
2023-04-22T03:44:11.537Z,18.20
2023-04-22T03:46:39.854Z,14.80
2023-04-22T03:49:17.107Z,13.10
2023-04-22T03:51:45.327Z,16.90
2023-04-22T03:54:16.781Z,14.20
2023-04-22T03:56:51.387Z,12.30
2023-04-22T03:59:20.480Z,11.20
2023-04-22T04:01:50.843Z,11.50
2023-04-22T04:06:56.691Z,15.70
2023-04-22T04:09:24.994Z,16.10
2023-04-22T04:11:53.463Z,13.70
2023-04-22T04:14:21.902Z,14.90
2023-04-22T04:16:52.499Z,14.30
2023-04-22T04:19:26.308Z,16.50
2023-04-22T04:21:54.561Z,12.80
2023-04-22T04:24:23.537Z,16.80
2023-04-22T04:26:53.769Z,13.60
2023-04-22T04:29:27.220Z,18.50
2023-04-22T04:32:08.698Z,14.10
2023-04-22T04:34:37.867Z,15.30
2023-04-22T04:37:07.304Z,11.70
2023-04-22T04:39:43.715Z,13.70
2023-04-22T04:42:14.537Z,16.00
2023-04-22T04:44:51.152Z,14.40
2023-04-22T04:47:20.318Z,21.10
2023-04-22T04:49:50.305Z,13.10
2023-04-22T04:52:18.460Z,11.90
2023-04-22T04:54:46.734Z,18.90
2023-04-22T04:57:14.953Z,12.60
2023-04-22T04:59:43.226Z,14.20
2023-04-22T05:02:11.961Z,16.00
2023-04-22T05:04:40.347Z,12.40
2023-04-22T05:07:08.658Z,13.40
2023-04-22T05:09:38.399Z,16.30
2023-04-22T05:12:07.702Z,17.00
2023-04-22T05:14:36.372Z,14.50
2023-04-22T05:17:04.714Z,17.00
2023-04-22T05:19:33.093Z,14.30
2023-04-22T05:22:01.410Z,14.40
2023-04-22T05:24:30.440Z,13.30
2023-04-22T05:27:00.584Z,15.30
2023-04-22T05:29:30.355Z,11.90
2023-04-22T05:31:58.673Z,13.70
2023-04-22T05:34:27.011Z,16.40
2023-04-22T05:36:55.314Z,20.50
2023-04-22T05:39:23.891Z,13.90
2023-04-22T05:41:52.582Z,14.70
2023-04-22T05:44:21.092Z,12.30
2023-04-22T05:46:49.483Z,15.70
2023-04-22T05:49:17.774Z,12.10
2023-04-22T05:52:04.504Z,14.80
2023-04-22T05:54:40.981Z,13.30
2023-04-22T05:57:09.613Z,12.40
2023-04-22T05:59:38.649Z,12.90
2023-04-22T06:02:07.563Z,11.70
2023-04-22T06:04:37.795Z,16.50
2023-04-22T06:07:06.478Z,13.10
2023-04-22T06:09:34.682Z,16.70
2023-04-22T06:12:04.146Z,12.80
2023-04-22T06:14:32.483Z,14.50
2023-04-22T06:17:00.728Z,12.80
2023-04-22T06:19:29.064Z,13.90
2023-04-22T06:21:57.723Z,14.20
2023-04-22T06:24:26.015Z,11.70
2023-04-22T06:26:58.253Z,11.60
2023-04-22T06:29:27.510Z,11.70
2023-04-22T06:31:55.947Z,9.80
2023-04-22T06:34:24.613Z,9.10
2023-04-22T06:36:54.015Z,9.50
2023-04-22T06:39:24.102Z,14.50
2023-04-22T06:41:55.238Z,10.30
2023-04-22T06:44:52.804Z,12.50
2023-04-22T06:47:33.356Z,15.30
2023-04-22T06:50:14.552Z,11.50
2023-04-22T06:52:55.054Z,13.20
2023-04-22T06:55:24.345Z,10.70
2023-04-22T06:57:52.668Z,12.00
2023-04-22T07:00:21.007Z,10.90
2023-04-22T07:02:49.259Z,12.00
2023-04-22T07:05:17.663Z,13.40
2023-04-22T07:07:47.127Z,12.40
2023-04-22T07:10:19.332Z,13.60
2023-04-22T07:13:07.023Z,12.00
2023-04-22T07:15:35.337Z,13.10
2023-04-22T07:18:03.915Z,17.30
2023-04-22T07:20:32.089Z,11.50
2023-04-22T07:23:00.348Z,12.40
2023-04-22T07:25:28.586Z,12.90
2023-04-22T07:27:56.770Z,11.50
2023-04-22T07:30:25.001Z,12.40
2023-04-22T07:32:53.350Z,14.40
2023-04-22T07:35:21.681Z,12.70
2023-04-22T07:37:49.858Z,12.40
2023-04-22T07:40:18.146Z,11.20
2023-04-22T07:42:46.458Z,13.20
2023-04-22T07:45:14.834Z,12.60
2023-04-22T07:47:43.279Z,14.80
2023-04-22T07:50:11.635Z,14.00
2023-04-22T07:52:39.811Z,13.00
2023-04-22T07:55:08.606Z,11.80
2023-04-22T07:57:38.963Z,13.40
2023-04-22T08:00:08.224Z,9.60
2023-04-22T08:02:44.304Z,12.20
2023-04-22T08:05:12.773Z,14.00
2023-04-22T08:07:41.144Z,11.80
2023-04-22T08:10:10.008Z,14.60
2023-04-22T08:12:38.283Z,13.90
2023-04-22T08:15:06.938Z,11.10
2023-04-22T08:17:35.410Z,13.80
2023-04-22T08:20:06.524Z,11.30
2023-04-22T08:22:36.859Z,15.90
2023-04-22T08:25:06.916Z,13.30
2023-04-22T08:27:35.638Z,13.60
2023-04-22T08:30:04.576Z,13.70
2023-04-22T08:32:33.865Z,11.50
2023-04-22T08:35:04.909Z,13.30
2023-04-22T08:37:34.468Z,12.90
2023-04-22T08:40:04.808Z,10.90
2023-04-22T08:42:33.097Z,15.00
2023-04-22T08:45:03.194Z,14.80
2023-04-22T08:47:33.156Z,15.20
2023-04-22T08:50:02.412Z,12.30
2023-04-22T08:52:31.382Z,11.40
2023-04-22T08:54:59.748Z,14.50
2023-04-22T08:57:28.056Z,11.00
2023-04-22T08:59:56.466Z,9.90
2023-04-22T09:02:25.051Z,11.10
2023-04-22T09:04:56.065Z,12.90
2023-04-22T09:07:25.833Z,14.20
2023-04-22T09:09:57.303Z,13.80
2023-04-22T09:12:25.638Z,14.00
2023-04-22T09:14:54.788Z,13.10
2023-04-22T09:17:33.290Z,11.60
2023-04-22T09:20:02.323Z,12.90
2023-04-22T09:22:38.553Z,12.10
2023-04-22T09:25:15.177Z,14.60
2023-04-22T09:27:43.632Z,16.20
2023-04-22T09:30:11.932Z,13.20
2023-04-22T09:32:40.206Z,15.20
2023-04-22T09:35:08.784Z,12.10
2023-04-22T09:37:46.505Z,15.40
2023-04-22T09:40:18.915Z,13.80
2023-04-22T09:42:51.569Z,11.60
2023-04-22T09:45:39.513Z,11.10
2023-04-22T09:48:15.387Z,11.90
2023-04-22T09:50:48.302Z,14.50
2023-04-22T09:53:17.744Z,18.60
2023-04-22T09:55:50.659Z,12.00
2023-04-22T09:58:20.326Z,13.70
2023-04-22T10:00:53.476Z,12.00
2023-04-22T10:03:22.607Z,11.80
2023-04-22T10:05:51.252Z,13.10
2023-04-22T10:08:19.481Z,11.10
2023-04-22T10:10:47.846Z,14.20
2023-04-22T10:13:17.178Z,13.70
2023-04-22T10:15:52.395Z,9.30
2023-04-22T10:18:23.360Z,12.80
2023-04-22T10:20:51.778Z,12.40
2023-04-22T10:23:21.393Z,10.40
2023-04-22T10:25:53.767Z,10.10
2023-04-22T10:28:23.427Z,11.90
2023-04-22T10:30:51.741Z,10.00
2023-04-22T10:33:24.138Z,9.10
2023-04-22T10:36:19.899Z,8.90
2023-04-22T10:38:50.887Z,9.30
2023-04-22T10:41:23.300Z,11.20
2023-04-22T10:44:01.388Z,9.20
2023-04-22T10:46:40.152Z,11.90
2023-04-22T10:49:18.230Z,7.20
2023-04-22T10:51:47.939Z,7.70
2023-04-22T10:54:31.483Z,10.40
2023-04-22T10:57:02.241Z,9.70
2023-04-22T10:59:35.226Z,8.20
2023-04-22T11:02:06.763Z,10.00
2023-04-22T11:04:35.680Z,11.90
2023-04-22T11:07:20.860Z,10.10
2023-04-22T11:09:53.422Z,7.00
2023-04-22T11:12:39.671Z,8.00
2023-04-22T11:15:17.157Z,12.30
2023-04-22T11:17:51.362Z,9.00
2023-04-22T11:20:19.680Z,10.30
2023-04-22T11:22:50.064Z,6.90
2023-04-22T11:25:18.350Z,7.70
2023-04-22T11:27:46.805Z,9.40
2023-04-22T11:30:16.356Z,7.10
2023-04-22T11:32:47.788Z,7.90
2023-04-22T11:35:24.730Z,7.70
2023-04-22T11:38:04.179Z,9.10
2023-04-22T11:40:35.823Z,10.10
2023-04-22T11:43:07.310Z,6.90
2023-04-22T11:45:36.663Z,6.50
2023-04-22T11:48:06.297Z,8.40
2023-04-22T11:50:36.308Z,8.10
2023-04-22T11:53:06.126Z,9.00
2023-04-22T11:55:35.989Z,9.90
2023-04-22T11:58:10.947Z,10.20
2023-04-22T12:00:47.404Z,8.90
2023-04-22T12:03:28.816Z,8.80
2023-04-22T12:05:59.446Z,12.60
2023-04-22T12:08:33.150Z,6.50
2023-04-22T12:11:03.858Z,12.10
2023-04-22T12:13:42.619Z,11.40
2023-04-22T12:16:20.331Z,7.00
2023-04-22T12:18:51.800Z,15.80
2023-04-22T12:21:24.990Z,10.30
2023-04-22T12:24:01.071Z,6.60
2023-04-22T12:26:29.544Z,8.30
2023-04-22T12:28:59.000Z,6.80
2023-04-22T12:31:27.415Z,12.80
2023-04-22T12:33:56.347Z,8.30
2023-04-22T12:36:25.258Z,7.10
2023-04-22T12:38:53.433Z,9.40
2023-04-22T12:41:23.145Z,7.20
2023-04-22T12:43:52.883Z,8.70
2023-04-22T12:46:21.208Z,7.20
2023-04-22T12:48:49.446Z,6.60
2023-04-22T12:51:17.790Z,6.90
2023-04-22T12:53:46.250Z,8.80
2023-04-22T12:56:14.893Z,7.60
2023-04-22T12:58:43.111Z,8.00
2023-04-22T13:01:11.354Z,6.60
2023-04-22T13:03:39.652Z,11.70
2023-04-22T13:06:07.951Z,6.50
2023-04-22T13:08:36.970Z,5.10
2023-04-22T13:11:05.122Z,6.10
2023-04-22T13:13:33.258Z,5.70
2023-04-22T13:16:02.110Z,11.40
2023-04-22T13:18:32.181Z,6.40
2023-04-22T13:21:00.523Z,6.20
2023-04-22T13:23:28.994Z,8.40
2023-04-22T13:25:57.126Z,5.50
2023-04-22T13:28:25.854Z,4.60
2023-04-22T13:30:55.476Z,5.10
2023-04-22T13:33:23.769Z,7.00
2023-04-22T13:35:51.972Z,8.10
2023-04-22T13:38:23.072Z,4.80
2023-04-22T13:40:51.296Z,4.40
2023-04-22T13:43:19.504Z,7.20
2023-04-22T13:45:48.514Z,5.50
2023-04-22T13:48:16.884Z,4.60
2023-04-22T13:50:45.081Z,6.60
2023-04-22T13:53:14.257Z,6.00
2023-04-22T13:55:43.445Z,6.00
2023-04-22T13:58:11.613Z,5.00
2023-04-22T14:00:39.941Z,4.10
2023-04-22T14:03:08.198Z,8.10
2023-04-22T14:05:37.082Z,7.20
2023-04-22T14:08:05.449Z,4.50
2023-04-22T14:10:33.820Z,6.30
2023-04-22T14:13:02.278Z,4.40
2023-04-22T14:15:30.433Z,3.50
2023-04-22T14:17:58.689Z,6.80
2023-04-22T14:20:27.142Z,4.10
2023-04-22T14:22:56.139Z,3.60
2023-04-22T14:25:24.418Z,3.60
2023-04-22T14:27:52.600Z,2.60
2023-04-22T14:30:22.008Z,2.30
2023-04-22T14:32:50.589Z,2.10
2023-04-22T14:35:19.048Z,3.30
2023-04-22T14:37:49.516Z,2.60
2023-04-22T14:40:17.838Z,3.70
2023-04-22T14:42:46.289Z,2.60
2023-04-22T14:45:14.833Z,3.70
2023-04-22T14:47:43.687Z,2.30
2023-04-22T14:50:12.036Z,3.10
2023-04-22T14:52:41.338Z,1.80
2023-04-22T14:55:19.902Z,4.50
2023-04-22T14:57:56.922Z,3.10
2023-04-22T15:00:26.053Z,4.90
2023-04-22T15:02:54.951Z,1.80
2023-04-22T15:05:23.704Z,2.20
2023-04-22T15:07:51.922Z,2.40
2023-04-22T15:10:20.370Z,3.30
2023-04-22T15:12:48.579Z,2.90
2023-04-22T15:15:18.108Z,2.10
2023-04-22T15:17:46.269Z,3.00
2023-04-22T15:20:14.772Z,2.80
2023-04-22T15:22:43.966Z,4.30
2023-04-22T15:25:12.109Z,1.70
2023-04-22T15:27:40.596Z,3.20
2023-04-22T15:30:11.151Z,2.30
2023-04-22T15:32:40.196Z,2.40
2023-04-22T15:35:08.783Z,3.50
2023-04-22T15:37:37.249Z,2.60
2023-04-22T15:40:07.048Z,7.30
2023-04-22T15:42:35.259Z,5.90
2023-04-22T15:45:04.149Z,2.00
2023-04-22T15:47:33.514Z,2.20
2023-04-22T15:50:09.455Z,2.80
2023-04-22T15:52:38.794Z,3.70
2023-04-22T15:55:07.868Z,10.40
2023-04-22T15:57:37.059Z,5.40
2023-04-22T16:00:13.102Z,2.50
2023-04-22T16:02:44.889Z,3.40
2023-04-22T16:05:14.823Z,4.80
2023-04-22T16:07:43.488Z,2.70
2023-04-22T16:10:12.129Z,2.50
2023-04-22T16:12:42.124Z,2.90
2023-04-22T16:15:11.123Z,2.00
2023-04-22T16:17:40.471Z,2.00
2023-04-22T16:20:09.657Z,3.10
2023-04-22T16:22:38.219Z,3.60
2023-04-22T16:25:07.052Z,5.50
2023-04-22T16:27:35.560Z,5.30
2023-04-22T16:30:04.144Z,6.10
2023-04-22T16:32:33.086Z,4.90
2023-04-22T16:35:01.518Z,4.50
2023-04-22T16:37:31.153Z,3.70
2023-04-22T16:39:59.388Z,3.00
2023-04-22T16:42:27.768Z,2.80
2023-04-22T16:44:56.030Z,4.60
2023-04-22T16:47:24.484Z,3.90
2023-04-22T16:49:52.758Z,3.30
2023-04-22T16:52:21.628Z,4.10
2023-04-22T16:54:51.628Z,4.30
2023-04-22T16:57:19.786Z,3.60
2023-04-22T16:59:50.452Z,3.20
2023-04-22T17:02:21.266Z,5.10
2023-04-22T17:04:50.699Z,3.40
2023-04-22T17:07:23.525Z,3.80
2023-04-22T17:09:57.196Z,9.30
2023-04-22T17:12:30.339Z,4.10
2023-04-22T17:15:12.648Z,2.90
2023-04-22T17:17:53.841Z,5.30
2023-04-22T17:20:22.290Z,6.80
2023-04-22T17:22:51.885Z,5.60
2023-04-22T17:25:20.170Z,4.20
2023-04-22T17:27:48.712Z,4.50
2023-04-22T17:30:16.958Z,4.20
2023-04-22T17:32:45.502Z,7.80
2023-04-22T17:35:13.636Z,7.10
2023-04-22T17:37:41.873Z,4.50
2023-04-22T17:40:11.305Z,5.70
2023-04-22T17:42:45.598Z,3.70
2023-04-22T17:45:14.582Z,4.70
2023-04-22T17:47:42.701Z,5.40
2023-04-22T17:50:11.263Z,4.60
2023-04-22T17:52:40.826Z,6.40
2023-04-22T17:55:09.602Z,7.90
2023-04-22T17:57:59.965Z,6.70
2023-04-22T18:03:08.238Z,6.40
2023-04-22T18:05:43.157Z,5.80
2023-04-22T18:08:11.429Z,6.40
2023-04-22T18:10:46.174Z,7.40
2023-04-22T18:13:14.527Z,4.80
2023-04-22T18:15:42.614Z,8.20
2023-04-22T18:18:10.723Z,5.20
2023-04-22T18:20:38.965Z,4.20
2023-04-22T18:23:07.118Z,5.10
2023-04-22T18:25:35.739Z,5.50
2023-04-22T18:28:04.064Z,5.20
2023-04-22T18:30:32.896Z,6.90
2023-04-22T18:33:01.216Z,6.80
2023-04-22T18:35:29.673Z,4.60
2023-04-22T18:37:57.737Z,7.40
2023-04-22T18:40:25.989Z,6.00
2023-04-22T18:42:54.216Z,6.30
2023-04-22T18:45:23.227Z,6.60
2023-04-22T18:47:51.558Z,5.40
2023-04-22T18:50:19.974Z,8.20
2023-04-22T18:52:48.494Z,4.40
2023-04-22T18:55:16.653Z,8.70
2023-04-22T18:57:44.913Z,7.70
2023-04-22T19:00:13.583Z,6.70
2023-04-22T19:02:42.578Z,8.20
2023-04-22T19:05:11.293Z,5.90
2023-04-22T19:07:42.566Z,5.40
2023-04-22T19:10:12.627Z,9.90
2023-04-22T19:12:41.124Z,8.80
2023-04-22T19:15:09.825Z,8.10
2023-04-22T19:17:38.778Z,5.10
2023-04-22T19:20:08.386Z,7.20
2023-04-22T19:22:37.084Z,11.60
2023-04-22T19:25:06.583Z,9.00
2023-04-22T19:27:35.214Z,9.50
2023-04-22T19:30:05.090Z,18.90
2023-04-22T19:32:33.805Z,14.30
2023-04-22T19:35:04.052Z,9.30
2023-04-22T19:37:34.263Z,7.50
2023-04-22T19:40:02.392Z,11.20
2023-04-22T19:42:30.845Z,11.40
2023-04-22T19:44:59.707Z,7.90
2023-04-22T19:47:28.060Z,10.70
2023-04-22T19:49:56.689Z,8.50
2023-04-22T19:52:24.971Z,14.90
2023-04-22T19:54:56.271Z,9.90
2023-04-22T19:57:25.048Z,11.80
2023-04-22T19:59:54.244Z,15.30
2023-04-22T20:02:23.934Z,16.90
2023-04-22T20:04:52.347Z,12.40
2023-04-22T20:07:20.779Z,12.60
2023-04-22T20:09:48.859Z,14.30
2023-04-22T20:12:17.267Z,17.40
2023-04-22T20:14:46.119Z,13.90
2023-04-22T20:17:14.491Z,15.30
2023-04-22T20:19:45.131Z,12.80
2023-04-22T20:22:14.779Z,14.60
2023-04-22T20:24:43.064Z,12.10
2023-04-22T20:27:11.596Z,13.20
2023-04-22T20:29:40.054Z,14.70
2023-04-22T20:32:09.674Z,11.60
2023-04-22T20:34:38.506Z,11.60
2023-04-22T20:37:10.504Z,12.70
2023-04-22T20:39:38.747Z,12.60
2023-04-22T20:42:07.321Z,15.00
2023-04-22T20:44:35.497Z,11.60
2023-04-22T20:47:03.681Z,15.70
2023-04-22T20:49:32.496Z,16.80
2023-04-22T20:52:01.226Z,16.10
2023-04-22T20:54:30.438Z,12.30
2023-04-22T20:56:59.040Z,12.70
2023-04-22T20:59:27.794Z,12.50
2023-04-22T21:01:55.945Z,16.30
2023-04-22T21:04:24.885Z,11.80
2023-04-22T21:06:55.816Z,9.30
2023-04-22T21:09:27.201Z,11.40
2023-04-22T21:11:55.795Z,9.70
2023-04-22T21:14:26.432Z,14.50
2023-04-22T21:17:05.214Z,12.40
2023-04-22T21:19:34.328Z,9.30
2023-04-22T21:22:05.194Z,11.60
2023-04-22T21:24:35.065Z,10.00
2023-04-22T21:27:03.730Z,9.00
2023-04-22T21:29:32.791Z,13.90
2023-04-22T21:32:07.979Z,12.70
2023-04-22T21:34:38.054Z,11.00
2023-04-22T21:37:07.153Z,8.40
2023-04-22T21:39:35.500Z,7.20
2023-04-22T21:42:07.953Z,11.30
2023-04-22T21:44:37.689Z,10.00
2023-04-22T21:47:06.816Z,13.10
2023-04-22T21:49:35.060Z,9.90
2023-04-22T21:52:03.456Z,13.30
2023-04-22T21:54:31.656Z,10.50
2023-04-22T21:57:01.366Z,10.40
2023-04-22T21:59:29.847Z,7.90
2023-04-22T22:01:58.136Z,9.50
2023-04-22T22:04:26.474Z,10.50
2023-04-22T22:06:54.650Z,7.30
2023-04-22T22:09:23.016Z,9.50
2023-04-22T22:11:51.078Z,7.50
2023-04-22T22:14:19.245Z,7.70
2023-04-22T22:16:47.423Z,9.10
2023-04-22T22:19:15.995Z,10.70
2023-04-22T22:21:44.061Z,9.90
2023-04-22T22:24:12.343Z,7.90
2023-04-22T22:26:42.111Z,8.80
2023-04-22T22:29:15.456Z,9.80
2023-04-22T22:31:44.462Z,11.00
2023-04-22T22:34:12.534Z,10.80
2023-04-22T22:36:41.294Z,9.40
2023-04-22T22:39:12.013Z,12.90
2023-04-22T22:41:42.411Z,11.10
2023-04-22T22:44:12.404Z,10.30
2023-04-22T22:46:40.783Z,9.20
2023-04-22T22:49:11.610Z,9.80
2023-04-22T22:51:39.624Z,12.40
2023-04-22T22:54:12.172Z,11.30
2023-04-22T22:56:41.204Z,11.00
2023-04-22T22:59:09.893Z,10.00
2023-04-22T23:01:38.317Z,11.10
2023-04-22T23:04:07.566Z,11.80
2023-04-22T23:09:21.473Z,9.40
2023-04-22T23:11:51.906Z,11.20
2023-04-22T23:14:20.298Z,11.40
2023-04-22T23:16:48.736Z,10.00
2023-04-22T23:19:20.099Z,10.90
2023-04-22T23:21:49.019Z,10.70
2023-04-22T23:24:17.501Z,13.10
2023-04-22T23:26:46.140Z,12.70
2023-04-22T23:29:14.520Z,12.30
2023-04-22T23:31:42.649Z,9.80
2023-04-22T23:34:10.832Z,11.30
2023-04-22T23:36:39.457Z,14.00
2023-04-22T23:39:09.795Z,13.00
2023-04-22T23:41:38.026Z,11.60
2023-04-22T23:44:06.674Z,10.10
2023-04-22T23:46:35.904Z,10.20
2023-04-22T23:49:04.288Z,10.80
2023-04-22T23:51:34.408Z,10.50
2023-04-22T23:54:02.604Z,10.90
2023-04-22T23:56:31.422Z,13.80
2023-04-22T23:58:59.969Z,10.90
